Time;durP1;ratioP1;P1;durP2;ratioP2;P2;SDS_P1;SDS_P2;PMS_P1;PMS_P2;Temp;Humidity;BMP_temperature;BMP_pressure;BME280_temperature;BME280_humidity;BME280_pressure;Samples;Min_cycle;Max_cycle;Signal;HPM_P1;HPM_P2
2021/10/29 00:00:43;;;;;;;70.90;66.97;;;10.10;99.90;;;;;;4285245;33;20180;-62
2021/10/29 00:03:12;;;;;;;70.70;66.80;;;10.10;99.90;;;;;;4286954;33;20176;-62
2021/10/29 00:05:45;;;;;;;70.93;67.13;;;10.00;99.90;;;;;;4285302;33;20217;-63
2021/10/29 00:08:14;;;;;;;67.97;63.80;;;10.00;99.90;;;;;;4286885;33;20150;-63
2021/10/29 00:10:43;;;;;;;72.83;68.73;;;9.90;99.90;;;;;;4341448;33;20461;-61
2021/10/29 00:13:17;;;;;;;70.13;66.03;;;9.90;99.90;;;;;;4345508;33;20143;-63
2021/10/29 00:15:46;;;;;;;70.00;66.13;;;9.90;99.90;;;;;;4345716;33;20160;-63
2021/10/29 00:18:16;;;;;;;72.77;68.60;;;9.90;99.90;;;;;;4346271;33;20146;-62
2021/10/29 00:20:46;;;;;;;67.00;63.10;;;9.80;99.90;;;;;;4347133;33;20477;-63
2021/10/29 00:23:16;;;;;;;66.20;62.13;;;9.80;99.90;;;;;;4345151;33;20175;-64
2021/10/29 00:25:47;;;;;;;69.40;65.10;;;9.80;99.90;;;;;;4345139;33;20593;-63
2021/10/29 00:28:22;;;;;;;68.53;64.43;;;9.80;99.90;;;;;;4347111;33;20164;-62
2021/10/29 00:30:53;;;;;;;69.70;65.23;;;9.80;99.90;;;;;;4347237;33;20167;-62
2021/10/29 00:36:07;;;;;;;67.07;63.37;;;9.80;99.90;;;;;;4343965;33;20536;-61
2021/10/29 00:38:35;;;;;;;67.57;63.93;;;9.80;99.90;;;;;;4346305;33;20235;-64
2021/10/29 00:41:04;;;;;;;65.33;61.33;;;9.80;99.90;;;;;;4345760;33;20212;-61
2021/10/29 00:43:33;;;;;;;67.40;63.10;;;9.80;99.90;;;;;;4345653;33;20140;-64
2021/10/29 00:46:03;;;;;;;73.07;69.17;;;9.70;99.90;;;;;;4346666;33;20227;-64
2021/10/29 00:48:30;;;;;;;63.53;59.77;;;9.70;99.90;;;;;;4345165;33;20153;-62
2021/10/29 00:50:57;;;;;;;69.67;65.47;;;9.70;99.90;;;;;;4347913;33;20133;-62
2021/10/29 00:53:26;;;;;;;67.53;63.77;;;9.70;99.90;;;;;;4349812;33;20138;-61
2021/10/29 00:55:53;;;;;;;64.40;60.10;;;9.70;99.90;;;;;;4348201;33;20137;-61
2021/10/29 00:58:23;;;;;;;73.50;69.10;;;9.60;99.90;;;;;;4348019;33;20137;-61
2021/10/29 01:00:51;;;;;;;66.67;62.60;;;9.70;99.90;;;;;;4347978;33;20170;-64
2021/10/29 01:03:17;;;;;;;67.33;63.40;;;9.70;99.90;;;;;;4347980;33;20557;-64
2021/10/29 01:05:45;;;;;;;67.97;63.83;;;9.70;99.90;;;;;;4348892;33;20146;-61
2021/10/29 01:08:15;;;;;;;65.63;61.30;;;9.70;99.90;;;;;;4348854;33;20156;-61
2021/10/29 01:10:43;;;;;;;68.07;63.97;;;9.60;99.90;;;;;;4334698;33;20453;-61
2021/10/29 01:13:10;;;;;;;71.50;67.30;;;9.60;99.90;;;;;;4333178;33;20599;-61
2021/10/29 01:15:42;;;;;;;67.90;63.70;;;9.60;99.90;;;;;;4333067;33;20554;-61
2021/10/29 01:18:08;;;;;;;68.10;63.93;;;9.60;99.90;;;;;;4333864;33;20569;-61
2021/10/29 01:20:37;;;;;;;63.00;58.77;;;9.60;99.90;;;;;;4333138;33;20173;-61
2021/10/29 01:23:04;;;;;;;66.27;62.20;;;9.60;99.90;;;;;;4332887;33;20146;-64
2021/10/29 01:25:31;;;;;;;64.87;61.07;;;9.50;99.90;;;;;;4333515;33;20538;-61
2021/10/29 01:27:59;;;;;;;62.63;58.70;;;9.50;99.90;;;;;;4333749;33;20140;-61
2021/10/29 01:30:26;;;;;;;63.07;59.30;;;9.50;99.90;;;;;;4332890;33;20661;-61
2021/10/29 01:32:53;;;;;;;65.03;60.60;;;9.50;99.90;;;;;;4347394;33;20145;-62
2021/10/29 01:35:23;;;;;;;66.83;62.83;;;9.50;99.90;;;;;;4347323;33;20152;-62
2021/10/29 01:37:53;;;;;;;65.27;61.47;;;9.50;99.90;;;;;;4347555;33;20160;-62
2021/10/29 01:40:20;;;;;;;58.97;55.17;;;9.50;99.90;;;;;;4347487;33;20159;-61
2021/10/29 01:42:48;;;;;;;65.07;61.03;;;9.50;99.90;;;;;;4347382;33;20138;-61
2021/10/29 01:45:19;;;;;;;61.67;58.10;;;9.50;99.90;;;;;;4347129;33;20168;-61
2021/10/29 01:47:50;;;;;;;59.00;55.20;;;9.50;99.90;;;;;;4347912;33;20255;-61
2021/10/29 01:50:19;;;;;;;62.13;58.07;;;9.50;99.90;;;;;;4348890;33;20236;-61
2021/10/29 01:52:46;;;;;;;63.97;60.00;;;9.50;99.90;;;;;;4348230;33;20179;-62
2021/10/29 01:55:17;;;;;;;62.93;59.20;;;9.50;99.90;;;;;;4347372;33;20245;-62
2021/10/29 01:57:48;;;;;;;66.77;62.70;;;9.50;99.90;;;;;;4348759;33;20244;-62
2021/10/29 02:00:15;;;;;;;65.03;60.93;;;9.50;99.90;;;;;;4346683;33;20207;-61
2021/10/29 02:02:43;;;;;;;68.17;64.37;;;9.50;99.90;;;;;;4346619;33;20146;-61
2021/10/29 02:05:10;;;;;;;59.13;55.40;;;9.50;99.90;;;;;;4348104;33;20558;-62
2021/10/29 02:07:37;;;;;;;63.60;59.87;;;9.50;99.90;;;;;;4347309;33;20450;-61
2021/10/29 02:10:05;;;;;;;61.87;58.03;;;9.50;99.90;;;;;;4346935;33;20137;-63
2021/10/29 02:12:34;;;;;;;63.07;59.07;;;9.60;99.90;;;;;;4347064;33;20153;-61
2021/10/29 02:15:05;;;;;;;60.67;56.60;;;9.50;99.90;;;;;;4348779;33;20150;-61
2021/10/29 02:17:32;;;;;;;61.40;57.50;;;9.60;99.90;;;;;;4346648;33;20142;-61
2021/10/29 02:19:59;;;;;;;64.37;60.23;;;9.60;99.90;;;;;;4347623;33;20616;-62
2021/10/29 02:22:26;;;;;;;64.10;60.30;;;9.60;99.90;;;;;;4346550;33;20219;-61
2021/10/29 02:24:53;;;;;;;62.60;58.40;;;9.60;99.90;;;;;;4348573;33;20137;-61
2021/10/29 02:27:20;;;;;;;59.27;55.90;;;9.60;99.90;;;;;;4348201;33;20147;-64
2021/10/29 02:29:49;;;;;;;63.83;60.13;;;9.60;99.90;;;;;;4346784;33;20493;-61
2021/10/29 02:32:21;;;;;;;59.30;55.73;;;9.60;99.90;;;;;;4348432;33;20587;-61
2021/10/29 02:34:48;;;;;;;65.37;61.40;;;9.60;99.90;;;;;;4346485;33;20550;-61
2021/10/29 02:37:15;;;;;;;67.27;63.07;;;9.70;99.90;;;;;;4347722;33;20159;-61
2021/10/29 02:39:41;;;;;;;63.53;59.63;;;9.70;99.90;;;;;;4347919;33;20151;-61
2021/10/29 02:42:09;;;;;;;62.53;58.90;;;9.70;99.90;;;;;;4346511;33;20561;-62
2021/10/29 02:44:37;;;;;;;63.93;59.97;;;9.80;99.90;;;;;;4343991;33;20236;-61
2021/10/29 02:47:05;;;;;;;59.70;56.13;;;9.80;99.90;;;;;;4346432;33;20141;-61
2021/10/29 02:49:32;;;;;;;65.13;61.40;;;9.80;99.90;;;;;;4346502;33;20163;-61
2021/10/29 02:51:59;;;;;;;62.17;58.40;;;9.80;99.90;;;;;;4347107;33;20141;-61
2021/10/29 02:54:26;;;;;;;63.80;60.10;;;9.70;99.90;;;;;;4346509;33;20200;-60
2021/10/29 02:56:53;;;;;;;65.87;61.90;;;9.70;99.90;;;;;;4345497;33;20168;-61
2021/10/29 02:59:20;;;;;;;63.50;59.70;;;9.80;99.90;;;;;;4346308;33;20145;-63
2021/10/29 03:01:47;;;;;;;61.97;58.17;;;9.70;99.90;;;;;;4347492;33;20168;-63
2021/10/29 03:04:16;;;;;;;60.77;57.27;;;9.60;99.90;;;;;;4346969;33;20141;-61
2021/10/29 03:06:46;;;;;;;66.10;62.10;;;9.70;99.90;;;;;;4346641;33;20136;-61
2021/10/29 03:09:14;;;;;;;64.90;61.13;;;9.70;99.90;;;;;;4346238;33;20148;-63
2021/10/29 03:11:41;;;;;;;64.97;61.33;;;9.70;99.90;;;;;;4346411;33;20144;-63
2021/10/29 03:14:10;;;;;;;65.53;61.70;;;9.70;99.90;;;;;;4347561;33;20156;-61
2021/10/29 03:16:37;;;;;;;63.37;59.53;;;9.70;99.90;;;;;;4347758;33;20489;-64
2021/10/29 03:19:07;;;;;;;63.67;59.90;;;9.70;99.90;;;;;;4346861;33;20137;-62
2021/10/29 03:21:38;;;;;;;63.13;59.20;;;9.70;99.90;;;;;;4347367;33;20141;-62
2021/10/29 03:24:06;;;;;;;63.63;59.97;;;9.70;99.90;;;;;;4346421;33;20151;-62
2021/10/29 03:26:33;;;;;;;66.03;62.27;;;9.60;99.90;;;;;;4346033;33;20137;-64
2021/10/29 03:29:00;;;;;;;58.30;54.67;;;9.60;99.90;;;;;;4345659;33;20161;-61
2021/10/29 03:31:28;;;;;;;60.10;56.50;;;9.60;99.90;;;;;;4346473;33;20129;-64
2021/10/29 03:33:55;;;;;;;64.87;61.07;;;9.70;99.90;;;;;;4347195;33;20145;-63
2021/10/29 03:36:21;;;;;;;60.83;57.43;;;9.70;99.90;;;;;;4346547;33;20145;-62
2021/10/29 03:38:55;;;;;;;58.93;55.47;;;9.70;99.90;;;;;;4345828;33;20178;-62
2021/10/29 03:41:24;;;;;;;63.77;59.97;;;9.60;99.90;;;;;;4345657;33;20632;-64
2021/10/29 03:43:55;;;;;;;60.93;57.37;;;9.70;99.90;;;;;;4346856;33;20188;-63
2021/10/29 03:46:23;;;;;;;60.37;56.77;;;9.60;99.90;;;;;;4347457;33;20173;-62
2021/10/29 03:49:02;;;;;;;63.27;59.60;;;9.70;99.90;;;;;;4346181;33;20651;-62
2021/10/29 03:51:33;;;;;;;61.50;57.73;;;9.70;99.90;;;;;;4345865;33;20140;-62
2021/10/29 03:54:05;;;;;;;64.60;61.00;;;9.70;99.90;;;;;;4345734;33;20164;-62
2021/10/29 03:56:41;;;;;;;63.07;59.37;;;9.70;99.90;;;;;;4346253;33;20145;-63
2021/10/29 03:59:09;;;;;;;56.97;53.37;;;9.60;99.90;;;;;;4347215;33;20524;-62
2021/10/29 04:01:47;;;;;;;62.57;58.87;;;9.70;99.90;;;;;;4345218;33;20519;-61
2021/10/29 04:04:17;;;;;;;63.40;59.60;;;9.60;99.90;;;;;;4346520;33;20557;-61
2021/10/29 04:06:45;;;;;;;59.67;56.03;;;9.70;99.90;;;;;;4347286;33;20137;-62
2021/10/29 04:09:13;;;;;;;63.13;59.33;;;9.60;99.90;;;;;;4345053;33;20149;-62
2021/10/29 04:11:45;;;;;;;62.63;59.07;;;9.60;99.90;;;;;;4345002;33;20164;-61
2021/10/29 04:14:12;;;;;;;56.90;53.63;;;9.60;99.90;;;;;;4345670;33;20140;-62
2021/10/29 04:16:40;;;;;;;61.03;56.87;;;9.60;99.90;;;;;;4346255;33;20232;-62
2021/10/29 04:19:10;;;;;;;57.27;53.97;;;9.60;99.90;;;;;;4345599;33;20176;-62
2021/10/29 04:21:44;;;;;;;61.80;58.23;;;9.60;99.90;;;;;;4346137;33;20459;-61
2021/10/29 04:24:31;;;;;;;57.80;54.40;;;9.60;99.90;;;;;;4345365;33;20153;-63
2021/10/29 04:27:07;;;;;;;58.73;55.33;;;9.60;99.90;;;;;;4349418;33;20170;-64
2021/10/29 04:29:44;;;;;;;64.30;60.60;;;9.60;99.90;;;;;;4350072;33;20480;-62
2021/10/29 04:32:13;;;;;;;61.83;58.37;;;9.60;99.90;;;;;;4348459;33;20556;-62
2021/10/29 04:34:45;;;;;;;59.10;55.60;;;9.60;99.90;;;;;;4333442;33;20188;-59
2021/10/29 04:37:13;;;;;;;61.07;57.80;;;9.70;99.90;;;;;;4341871;33;20157;-60
2021/10/29 04:39:43;;;;;;;62.23;58.53;;;9.70;99.90;;;;;;4348328;33;20213;-63
2021/10/29 04:42:10;;;;;;;64.67;60.80;;;9.70;99.90;;;;;;4348051;33;20173;-62
2021/10/29 04:44:37;;;;;;;59.97;56.37;;;9.60;99.90;;;;;;4348589;33;20461;-60
2021/10/29 04:47:07;;;;;;;58.20;54.37;;;9.70;99.90;;;;;;4347598;33;20142;-60
2021/10/29 04:49:36;;;;;;;61.80;58.23;;;9.60;99.90;;;;;;4348214;33;20243;-61
2021/10/29 04:52:03;;;;;;;60.73;57.03;;;9.60;99.90;;;;;;4349926;33;20167;-61
2021/10/29 04:54:31;;;;;;;63.27;59.37;;;9.60;99.90;;;;;;4349669;33;20141;-61
2021/10/29 04:57:02;;;;;;;61.53;57.77;;;9.60;99.90;;;;;;4348305;33;20584;-63
2021/10/29 04:59:32;;;;;;;66.33;62.57;;;9.60;99.90;;;;;;4347737;33;20468;-63
2021/10/29 05:02:02;;;;;;;61.57;57.97;;;9.60;99.90;;;;;;4347599;33;20140;-63
2021/10/29 05:04:28;;;;;;;59.57;56.07;;;9.60;99.90;;;;;;4349503;33;20163;-60
2021/10/29 05:06:58;;;;;;;66.90;63.20;;;9.60;99.90;;;;;;4347495;33;20169;-61
2021/10/29 05:09:27;;;;;;;63.33;59.07;;;9.60;99.90;;;;;;4348273;33;20156;-62
2021/10/29 05:11:56;;;;;;;64.77;61.23;;;9.60;99.90;;;;;;4347307;33;20179;-63
2021/10/29 05:14:28;;;;;;;66.93;63.00;;;9.60;99.90;;;;;;4349239;33;20123;-64
2021/10/29 05:16:55;;;;;;;64.73;61.27;;;9.60;99.90;;;;;;4349250;33;20168;-64
2021/10/29 05:19:22;;;;;;;62.93;59.30;;;9.60;99.90;;;;;;4348210;33;20155;-61
2021/10/29 05:21:53;;;;;;;61.87;58.43;;;9.60;99.90;;;;;;4348803;33;20164;-61
2021/10/29 05:24:21;;;;;;;61.60;58.10;;;9.60;99.90;;;;;;4346132;33;20679;-62
2021/10/29 05:26:58;;;;;;;60.77;57.13;;;9.60;99.90;;;;;;4347445;33;20208;-63
2021/10/29 05:29:50;;;;;;;59.47;55.93;;;9.60;99.90;;;;;;4345534;33;20450;-61
2021/10/29 05:32:16;;;;;;;62.77;58.83;;;9.60;99.90;;;;;;4344184;33;20192;-61
2021/10/29 05:34:43;;;;;;;62.07;58.63;;;9.60;99.90;;;;;;4345766;33;20617;-61
2021/10/29 05:37:13;;;;;;;61.93;58.47;;;9.60;99.90;;;;;;4345450;33;20165;-61
2021/10/29 05:39:45;;;;;;;59.90;56.60;;;9.60;99.90;;;;;;4346072;33;20200;-61
2021/10/29 05:42:15;;;;;;;65.20;61.40;;;9.60;99.90;;;;;;4345922;33;20173;-61
2021/10/29 05:47:51;;;;;;;63.10;59.47;;;9.60;99.90;;;;;;4343212;33;20190;-61
2021/10/29 05:50:19;;;;;;;65.47;61.00;;;9.60;99.90;;;;;;4347087;33;20474;-61
2021/10/29 05:52:47;;;;;;;65.57;61.87;;;9.60;99.90;;;;;;4345451;33;20477;-61
2021/10/29 05:55:16;;;;;;;65.50;61.93;;;9.50;99.90;;;;;;4346029;33;20226;-61
2021/10/29 05:57:46;;;;;;;66.57;62.93;;;9.60;99.90;;;;;;4345904;33;20173;-61
2021/10/29 06:00:18;;;;;;;64.87;61.20;;;9.60;99.90;;;;;;4346171;33;20141;-61
2021/10/29 06:02:46;;;;;;;64.07;60.23;;;9.60;99.90;;;;;;4346981;33;20157;-61
2021/10/29 06:05:14;;;;;;;62.13;58.73;;;9.60;99.90;;;;;;4340621;33;20159;-61
2021/10/29 06:07:42;;;;;;;69.20;65.23;;;9.60;99.90;;;;;;4346507;33;20140;-61
2021/10/29 06:10:14;;;;;;;65.27;61.53;;;9.60;99.90;;;;;;4345897;33;20160;-61
2021/10/29 06:12:41;;;;;;;64.10;60.60;;;9.60;99.90;;;;;;4346323;33;20584;-61
2021/10/29 06:15:11;;;;;;;61.70;58.53;;;9.60;99.90;;;;;;4346311;33;20212;-61
2021/10/29 06:17:40;;;;;;;63.07;59.40;;;9.60;99.90;;;;;;4346418;33;20240;-61
2021/10/29 06:20:34;;;;;;;63.43;59.93;;;9.60;99.90;;;;;;4344735;33;20210;-61
2021/10/29 06:23:08;;;;;;;56.90;53.33;;;9.60;99.90;;;;;;4345976;33;20676;-60
2021/10/29 06:25:42;;;;;;;60.33;56.90;;;9.60;99.90;;;;;;4345455;33;20218;-60
2021/10/29 06:28:23;;;;;;;61.90;58.50;;;9.70;99.90;;;;;;4331044;33;20176;-61
2021/10/29 06:30:55;;;;;;;59.77;56.43;;;9.70;99.90;;;;;;4332694;33;20219;-60
2021/10/29 06:33:24;;;;;;;62.43;59.03;;;9.70;99.90;;;;;;4339108;33;20197;-60
2021/10/29 06:35:56;;;;;;;57.70;53.83;;;9.90;99.90;;;;;;4347442;33;20167;-60
2021/10/29 06:38:25;;;;;;;60.83;57.30;;;9.90;99.90;;;;;;4346753;33;20145;-60
2021/10/29 06:41:01;;;;;;;66.13;62.57;;;9.90;99.90;;;;;;4348401;33;20162;-60
2021/10/29 06:43:31;;;;;;;66.00;62.43;;;10.10;99.90;;;;;;4346650;33;20136;-61
2021/10/29 06:46:29;;;;;;;60.80;57.40;;;10.10;99.90;;;;;;4347990;33;20231;-60
2021/10/29 06:49:09;;;;;;;59.17;55.77;;;10.10;99.90;;;;;;4346535;33;20192;-60
2021/10/29 07:00:19;;;;;;;57.73;54.60;;;10.30;99.90;;;;;;4286053;33;20145;-60
2021/10/29 07:11:34;;;;;;;60.13;56.43;;;10.20;99.90;;;;;;4284665;33;20194;-61
2021/10/29 07:41:54;;;;;;;59.40;56.20;;;10.70;99.90;;;;;;4361022;32;20187;-61
2021/10/29 07:44:27;;;;;;;70.20;66.27;;;10.70;99.90;;;;;;4362211;32;20154;-62
2021/10/29 07:46:57;;;;;;;68.53;64.73;;;10.80;99.90;;;;;;4362342;32;20171;-61
2021/10/29 07:49:30;;;;;;;66.07;62.73;;;10.90;99.90;;;;;;4360145;33;20141;-61
2021/10/29 07:52:03;;;;;;;62.70;59.17;;;11.00;99.90;;;;;;4360707;33;20366;-61
2021/10/29 07:54:32;;;;;;;71.80;67.87;;;11.00;99.90;;;;;;4360873;32;20151;-61
2021/10/29 07:57:03;;;;;;;68.77;64.73;;;11.00;99.90;;;;;;4361017;32;20560;-61
2021/10/29 07:59:32;;;;;;;68.27;64.67;;;11.10;99.90;;;;;;4361584;32;20558;-61
2021/10/29 08:01:59;;;;;;;68.63;64.97;;;11.20;99.90;;;;;;4360964;33;20183;-61
2021/10/29 08:04:37;;;;;;;65.33;61.87;;;11.20;99.90;;;;;;4360620;33;20152;-62
2021/10/29 08:07:18;;;;;;;69.10;65.30;;;11.30;99.90;;;;;;4360511;33;20277;-61
2021/10/29 08:09:46;;;;;;;67.37;63.73;;;11.40;99.90;;;;;;4362115;33;20165;-61
2021/10/29 08:12:16;;;;;;;73.60;69.43;;;11.40;99.90;;;;;;4360394;33;20145;-61
2021/10/29 08:14:56;;;;;;;64.80;61.20;;;11.40;99.90;;;;;;4360991;32;20133;-61
2021/10/29 08:17:26;;;;;;;66.33;62.77;;;11.50;99.90;;;;;;4361942;33;20171;-62
2021/10/29 08:19:55;;;;;;;73.30;68.93;;;11.60;99.90;;;;;;4362032;33;20141;-62
2021/10/29 08:22:25;;;;;;;68.23;64.60;;;11.70;99.90;;;;;;4360055;33;20183;-62
2021/10/29 08:25:00;;;;;;;72.73;68.70;;;11.80;99.90;;;;;;4360297;33;20128;-61
2021/10/29 08:27:44;;;;;;;64.40;60.83;;;11.90;99.90;;;;;;4360152;33;20177;-62
2021/10/29 08:32:53;;;;;;;68.10;64.53;;;11.90;99.90;;;;;;4344513;33;20252;-62
2021/10/29 08:35:25;;;;;;;66.50;63.07;;;11.90;99.90;;;;;;4343186;33;20556;-61
2021/10/29 08:37:55;;;;;;;66.63;62.77;;;12.00;99.90;;;;;;4345113;33;20547;-61
2021/10/29 08:40:34;;;;;;;71.83;68.30;;;12.10;99.90;;;;;;4344716;33;20169;-61
2021/10/29 08:43:08;;;;;;;67.83;64.33;;;12.10;99.90;;;;;;4344955;33;20188;-61
2021/10/29 08:45:35;;;;;;;67.47;63.53;;;12.30;99.90;;;;;;4345037;33;20168;-62
2021/10/29 08:48:02;;;;;;;77.73;73.73;;;12.40;99.90;;;;;;4343234;33;20296;-61
2021/10/29 08:50:34;;;;;;;66.03;62.50;;;12.50;99.90;;;;;;4341830;33;20601;-61
2021/10/29 08:53:03;;;;;;;63.83;60.43;;;12.50;99.90;;;;;;4343322;33;20324;-61
2021/10/29 08:55:33;;;;;;;68.13;64.67;;;12.60;99.90;;;;;;4343274;33;20161;-61
2021/10/29 08:58:02;;;;;;;70.13;66.53;;;12.70;99.90;;;;;;4357906;33;20165;-61
2021/10/29 09:00:34;;;;;;;69.20;65.73;;;12.80;99.90;;;;;;4360430;32;20354;-61
2021/10/29 09:03:07;;;;;;;65.03;61.63;;;12.80;99.90;;;;;;4361995;33;20156;-62
2021/10/29 09:05:44;;;;;;;67.67;64.17;;;13.00;99.90;;;;;;4360268;32;20187;-61
2021/10/29 09:08:17;;;;;;;70.47;66.37;;;12.90;99.90;;;;;;4360399;33;20172;-61
2021/10/29 09:31:30;;;;;;;60.70;57.37;;;14.20;99.90;;;;;;4302907;33;20165;-62
2021/10/29 09:34:05;;;;;;;61.13;57.87;;;14.40;99.90;;;;;;4301435;33;20170;-61
2021/10/29 09:36:40;;;;;;;60.77;57.60;;;14.30;99.90;;;;;;4302355;33;20204;-60
2021/10/29 09:39:22;;;;;;;64.07;60.57;;;14.30;99.90;;;;;;4303169;33;20692;-61
2021/10/29 09:42:09;;;;;;;63.07;59.97;;;14.20;99.90;;;;;;4302650;33;20149;-60
2021/10/29 09:47:35;;;;;;;55.97;53.03;;;14.30;99.90;;;;;;4307452;33;20347;-61
2021/10/29 09:50:12;;;;;;;59.40;56.10;;;14.20;99.90;;;;;;4332130;33;20148;-62
2021/10/29 09:53:22;;;;;;;62.23;58.93;;;14.20;99.90;;;;;;4330573;33;20255;-61
2021/10/29 09:56:03;;;;;;;61.00;57.93;;;14.20;99.90;;;;;;4330383;33;20180;-61
2021/10/29 09:58:31;;;;;;;58.57;55.43;;;14.20;99.90;;;;;;4330830;33;20164;-61
2021/10/29 10:01:02;;;;;;;66.63;63.23;;;14.30;99.90;;;;;;4338729;33;20256;-63
2021/10/29 10:03:35;;;;;;;57.93;54.90;;;14.40;99.90;;;;;;4348544;33;20137;-60
2021/10/29 10:06:06;;;;;;;62.83;59.60;;;14.40;99.90;;;;;;4347999;33;20615;-61
2021/10/29 10:08:39;;;;;;;65.27;62.03;;;14.40;99.90;;;;;;4347060;33;20144;-61
2021/10/29 10:11:08;;;;;;;64.37;61.10;;;14.50;99.90;;;;;;4347848;33;20192;-63
2021/10/29 10:13:42;;;;;;;67.13;63.60;;;14.50;99.90;;;;;;4347728;33;20158;-61
2021/10/29 10:16:10;;;;;;;57.97;54.77;;;14.50;99.90;;;;;;4347709;33;20632;-61
2021/10/29 10:18:37;;;;;;;66.53;63.20;;;14.40;99.90;;;;;;4348536;33;20163;-61
2021/10/29 10:21:22;;;;;;;59.13;56.03;;;14.30;99.90;;;;;;4346810;33;20188;-62
2021/10/29 10:23:55;;;;;;;63.70;60.50;;;14.30;99.90;;;;;;4347845;33;20223;-61
2021/10/29 10:26:35;;;;;;;60.73;57.33;;;14.40;99.90;;;;;;4347150;33;20526;-61
2021/10/29 10:29:24;;;;;;;57.67;54.50;;;14.50;99.90;;;;;;4346969;33;20232;-61
2021/10/29 10:41:29;;;;;;;62.03;58.70;;;15.10;99.90;;;;;;4347293;33;20518;-61
2021/10/29 10:44:32;;;;;;;70.17;66.67;;;15.20;99.90;;;;;;4347071;33;20133;-61
2021/10/29 10:47:03;;;;;;;63.60;60.10;;;15.20;99.90;;;;;;4348137;33;20167;-61
2021/10/29 10:50:12;;;;;;;60.90;57.60;;;15.40;99.90;;;;;;4346743;33;20164;-62
2021/10/29 10:53:31;;;;;;;57.13;54.13;;;15.40;99.90;;;;;;4346476;33;20608;-62
2021/10/29 10:56:12;;;;;;;59.13;55.93;;;15.20;99.90;;;;;;4346783;33;20499;-61
2021/10/29 10:59:09;;;;;;;60.93;57.73;;;15.20;99.90;;;;;;4346184;33;20133;-61
2021/10/29 11:04:51;;;;;;;61.33;58.13;;;15.10;99.90;;;;;;4346682;32;20165;-61
2021/10/29 11:10:36;;;;;;;60.30;57.20;;;15.20;99.90;;;;;;4315690;33;20150;-61
2021/10/29 11:13:09;;;;;;;58.23;54.87;;;15.30;99.90;;;;;;4314848;33;20173;-61
2021/10/29 11:15:38;;;;;;;61.93;58.83;;;15.40;99.90;;;;;;4316027;33;20177;-61
2021/10/29 11:18:28;;;;;;;62.90;59.90;;;15.40;99.90;;;;;;4325706;33;20595;-64
2021/10/29 11:21:19;;;;;;;57.87;54.77;;;15.40;99.90;;;;;;4328871;33;20177;-61
2021/10/29 11:24:03;;;;;;;56.77;53.87;;;15.40;99.90;;;;;;4330913;33;20154;-61
2021/10/29 11:26:44;;;;;;;60.43;57.37;;;15.40;99.90;;;;;;4330821;33;20153;-62
2021/10/29 11:29:15;;;;;;;59.43;56.00;;;15.40;99.90;;;;;;4329029;33;20183;-63
2021/10/29 11:31:49;;;;;;;68.23;64.83;;;15.40;99.90;;;;;;4329173;33;20160;-61
2021/10/29 11:34:20;;;;;;;59.00;55.87;;;15.40;99.90;;;;;;4328853;33;20207;-61
2021/10/29 11:36:54;;;;;;;65.57;62.33;;;15.50;99.90;;;;;;4329017;33;20212;-61
2021/10/29 11:39:35;;;;;;;64.97;61.73;;;15.50;99.90;;;;;;4329115;33;20222;-61
2021/10/29 11:42:16;;;;;;;59.87;56.87;;;15.50;99.90;;;;;;4330506;33;20149;-62
2021/10/29 11:44:46;;;;;;;61.67;58.60;;;15.50;99.90;;;;;;4329150;33;20137;-62
2021/10/29 11:47:14;;;;;;;68.57;65.27;;;15.60;99.90;;;;;;4343004;33;20240;-62
2021/10/29 11:49:51;;;;;;;61.40;58.23;;;15.60;99.90;;;;;;4361432;32;20141;-62
2021/10/29 11:52:36;;;;;;;64.23;61.00;;;15.70;99.90;;;;;;4360619;33;20175;-62
2021/10/29 11:55:17;;;;;;;60.87;57.80;;;15.80;99.90;;;;;;4360841;32;20133;-62
2021/10/29 11:57:52;;;;;;;73.17;69.63;;;15.90;99.90;;;;;;4361535;32;20137;-62
2021/10/29 12:00:51;;;;;;;64.00;60.80;;;16.00;99.90;;;;;;4360549;33;20596;-64
2021/10/29 12:07:13;;;;;;;63.83;60.73;;;16.10;99.90;;;;;;4361820;33;20203;-62
2021/10/29 12:09:25;;;;;;;56.80;53.90;;;16.20;99.90;;;;;;4358617;33;20680;-63
2021/10/29 12:12:10;;;;;;;60.07;57.07;;;16.20;99.90;;;;;;4358828;33;20540;-62
2021/10/29 12:14:52;;;;;;;58.10;55.50;;;16.30;99.90;;;;;;4359973;33;20141;-62
2021/10/29 12:17:32;;;;;;;58.20;55.37;;;16.30;99.90;;;;;;4360103;33;20204;-62
2021/10/29 12:20:02;;;;;;;57.67;54.83;;;16.50;99.90;;;;;;4361813;33;20259;-63
2021/10/29 12:25:29;;;;;;;58.33;55.73;;;16.40;99.90;;;;;;4359904;32;20203;-62
2021/10/29 12:28:08;;;;;;;56.70;54.00;;;16.40;99.90;;;;;;4361067;33;20161;-63
2021/10/29 12:30:45;;;;;;;50.87;48.23;;;16.40;99.90;;;;;;4361303;33;20164;-62
2021/10/29 12:47:34;;;;;;;47.17;44.77;;;16.50;99.90;;;;;;4341449;33;20211;-62
2021/10/29 12:53:54;;;;;;;50.37;47.97;;;16.60;99.90;;;;;;4344587;33;20585;-62
2021/10/29 13:01:25;;;;;;;50.43;48.13;;;16.80;99.90;;;;;;4344957;33;20223;-64
2021/10/29 13:02:22;;;;;;;51.63;49.13;;;16.80;99.90;;;;;;4346540;33;20266;-62
2021/10/29 13:04:58;;;;;;;49.53;46.77;;;16.90;99.90;;;;;;4344956;33;20155;-63
2021/10/29 13:07:32;;;;;;;51.07;48.50;;;16.90;99.90;;;;;;4344605;33;20492;-64
2021/10/29 13:10:07;;;;;;;52.63;49.93;;;16.90;99.90;;;;;;4344877;33;20172;-63
2021/10/29 13:12:46;;;;;;;49.17;46.47;;;17.00;99.90;;;;;;4350448;32;20137;-63
2021/10/29 13:15:25;;;;;;;48.60;46.13;;;17.10;99.90;;;;;;4362704;32;20202;-62
2021/10/29 13:17:56;;;;;;;44.23;41.83;;;17.10;99.90;;;;;;4361189;32;20175;-62
2021/10/29 13:24:01;;;;;;;41.23;39.07;;;17.20;99.90;;;;;;4361735;32;20157;-63
2021/10/29 13:34:17;;;;;;;44.27;42.17;;;17.20;99.90;;;;;;4359642;32;20600;-63
2021/10/29 13:52:20;;;;;;;47.47;45.10;;;17.30;99.90;;;;;;4325891;33;20271;-62
2021/10/29 13:55:07;;;;;;;43.97;41.67;;;17.30;99.90;;;;;;4337843;33;20149;-63
2021/10/29 14:28:45;;;;;;;46.40;43.63;;;16.80;99.90;;;;;;4318404;33;20184;-62
2021/10/29 14:31:18;;;;;;;50.90;48.50;;;16.80;99.90;;;;;;4318568;33;20243;-61
2021/10/29 14:33:52;;;;;;;52.70;49.97;;;16.80;99.90;;;;;;4315987;33;20553;-63
2021/10/29 14:36:29;;;;;;;50.60;48.20;;;16.80;99.90;;;;;;4310101;33;20154;-63
2021/10/29 14:39:24;;;;;;;51.77;49.27;;;16.80;99.90;;;;;;4315920;33;20171;-62
2021/10/29 14:42:09;;;;;;;56.57;53.40;;;16.90;99.90;;;;;;4315267;33;20556;-62
2021/10/29 14:44:50;;;;;;;49.40;47.07;;;16.90;99.90;;;;;;4357407;32;20265;-63
2021/10/29 14:47:27;;;;;;;51.10;48.63;;;16.90;99.90;;;;;;4361118;32;20153;-64
2021/10/29 14:50:09;;;;;;;51.57;48.90;;;16.90;99.90;;;;;;4359313;32;20166;-64
2021/10/29 14:53:04;;;;;;;58.47;55.67;;;16.90;99.90;;;;;;4358689;33;20198;-64
2021/10/29 15:04:20;;;;;;;58.50;55.30;;;17.00;99.90;;;;;;4258894;32;5338040;-62
2021/10/29 15:18:06;;;;;;;57.00;54.00;;;17.00;99.90;;;;;;4407648;32;20565;-62
2021/10/29 15:29:02;;;;;;;58.80;56.00;;;16.80;99.90;;;;;;4393070;32;20180;-62
2021/10/29 15:42:51;;;;;;;59.13;56.23;;;16.50;99.90;;;;;;4347132;33;20207;-62
2021/10/29 15:45:22;;;;;;;60.40;57.13;;;16.50;99.90;;;;;;4347700;33;20670;-63
2021/10/29 15:48:00;;;;;;;56.73;54.17;;;16.50;99.90;;;;;;4349615;33;20165;-63
2021/10/29 15:50:32;;;;;;;58.57;55.67;;;16.50;99.90;;;;;;4343851;33;20232;-60
2021/10/29 15:53:01;;;;;;;64.50;61.60;;;16.50;99.90;;;;;;4348090;33;20200;-60
2021/10/29 15:55:34;;;;;;;56.47;53.67;;;16.50;99.90;;;;;;4347742;33;20191;-60
2021/10/29 15:58:11;;;;;;;60.60;57.47;;;16.30;99.90;;;;;;4347372;33;20169;-60
2021/10/29 16:00:50;;;;;;;65.63;62.50;;;16.10;99.90;;;;;;4348932;33;20161;-60
2021/10/29 16:03:22;;;;;;;70.90;67.67;;;15.80;99.90;;;;;;4346442;33;20161;-62
2021/10/29 16:17:06;;;;;;;73.67;70.13;;;15.40;99.90;;;;;;4395847;32;20209;-60
2021/10/29 16:19:40;;;;;;;75.17;71.93;;;15.30;99.90;;;;;;4396882;32;20161;-60
2021/10/29 16:22:17;;;;;;;84.90;81.20;;;15.20;99.90;;;;;;4394918;32;20232;-63
2021/10/29 16:24:54;;;;;;;86.53;82.43;;;14.90;99.90;;;;;;4398200;32;20243;-63
2021/10/29 16:27:21;;;;;;;83.87;80.17;;;14.70;99.90;;;;;;4400209;32;20160;-63
2021/10/29 16:29:50;;;;;;;93.13;89.07;;;14.50;99.90;;;;;;4398901;32;20180;-62
2021/10/29 16:32:24;;;;;;;90.40;86.47;;;14.40;99.90;;;;;;4395327;32;20170;-62
2021/10/29 16:34:50;;;;;;;95.90;91.53;;;14.40;99.90;;;;;;4396355;32;20159;-62
2021/10/29 16:37:17;;;;;;;92.90;88.67;;;14.30;99.90;;;;;;4399583;32;20593;-62
2021/10/29 16:42:34;;;;;;;94.63;90.30;;;14.30;99.90;;;;;;4396662;32;20210;-62
2021/10/29 16:45:02;;;;;;;104.60;100.10;;;14.20;99.90;;;;;;4399857;32;20223;-62
2021/10/29 16:47:32;;;;;;;99.93;95.37;;;14.20;99.90;;;;;;4401883;32;20214;-62
2021/10/29 16:50:09;;;;;;;99.27;94.87;;;14.20;99.90;;;;;;4397033;32;20595;-62